Time;durP1;ratioP1;P1;durP2;ratioP2;P2;SDS_P1;SDS_P2;PMS_P1;PMS_P2;Temp;Humidity;BMP_temperature;BMP_pressure;BME280_temperature;BME280_humidity;BME280_pressure;Samples;Min_cycle;Max_cycle;Signal;HPM_P1;HPM_P2
2023/03/29 00:01:10;;;;;;;2.20;1.63;;;-1.20;99.90;-0.40;97423.00;;;;5007352;28;20471;-70
2023/03/29 00:03:59;;;;;;;1.57;1.30;;;-1.20;99.90;-0.60;97417.00;;;;5003709;28;20437;-69
2023/03/29 00:06:49;;;;;;;3.30;1.80;;;-1.00;99.90;-0.60;97408.00;;;;5005408;28;20507;-69
2023/03/29 00:09:39;;;;;;;1.20;1.10;;;-1.20;99.90;-0.60;97406.00;;;;5007286;28;20555;-69
2023/03/29 00:12:28;;;;;;;1.30;1.30;;;-1.20;99.90;-0.40;97418.00;;;;5007701;28;20468;-69
2023/03/29 00:15:17;;;;;;;2.70;1.57;;;-1.00;99.90;-0.40;97413.00;;;;5009752;28;20518;-69
2023/03/29 00:18:05;;;;;;;1.30;1.20;;;-1.00;99.90;-0.10;97403.00;;;;5008812;28;20421;-69
2023/03/29 00:20:55;;;;;;;1.50;1.40;;;-1.10;99.90;-0.10;97409.00;;;;5006490;28;20449;-69
2023/03/29 00:23:44;;;;;;;1.27;1.10;;;-1.00;99.90;-0.10;97404.00;;;;5005567;28;20456;-70
2023/03/29 00:26:34;;;;;;;1.60;1.37;;;-1.00;99.90;-0.20;97399.00;;;;5005582;28;20500;-69
2023/03/29 00:29:23;;;;;;;3.13;1.60;;;-0.90;99.90;-0.60;97398.00;;;;5006436;28;20517;-69
2023/03/29 00:32:12;;;;;;;1.53;1.43;;;-1.00;99.90;-0.80;97401.00;;;;5007897;28;20489;-70
2023/03/29 00:35:01;;;;;;;2.53;1.17;;;-1.10;99.90;-0.90;97401.00;;;;5008690;28;20480;-70
2023/03/29 00:37:51;;;;;;;2.23;1.10;;;-1.20;99.90;-1.40;97406.00;;;;5003478;28;20480;-70
2023/03/29 00:40:43;;;;;;;1.23;1.13;;;-1.30;99.90;-1.20;97407.00;;;;5010694;28;20453;-68
2023/03/29 00:43:53;;;;;;;1.00;1.00;;;-1.40;99.90;-1.00;97403.00;;;;5006719;28;20543;-70
2023/03/29 00:46:42;;;;;;;1.83;1.73;;;-1.50;99.90;-0.90;97399.00;;;;5005230;28;20878;-68
2023/03/29 00:49:31;;;;;;;1.43;0.80;;;-3.40;99.90;-1.20;97404.00;;;;5009459;28;20898;-70
2023/03/29 00:52:22;;;;;;;1.77;1.00;;;-1.50;99.90;-1.10;97414.00;;;;5004811;28;20438;-66
2023/03/29 00:55:16;;;;;;;0.97;0.97;;;-1.50;99.90;-0.70;97402.00;;;;5004728;28;20473;-70
2023/03/29 00:58:11;;;;;;;1.40;1.40;;;-1.40;99.90;-0.40;97400.00;;;;5007669;28;20466;-70
2023/03/29 01:01:07;;;;;;;1.60;1.33;;;-1.40;99.90;-0.30;97401.00;;;;5001091;28;20450;-70
2023/03/29 01:04:03;;;;;;;2.90;1.23;;;-1.20;99.90;-0.40;97400.00;;;;5003323;28;20473;-70
2023/03/29 01:06:58;;;;;;;2.33;1.17;;;-1.20;99.90;-0.60;97409.00;;;;5004797;28;20418;-68
2023/03/29 01:09:53;;;;;;;2.20;1.03;;;-1.20;99.90;-0.30;97406.00;;;;5011570;28;20452;-68
2023/03/29 01:12:47;;;;;;;1.27;1.17;;;-1.10;99.90;-0.10;97411.00;;;;5005767;28;21173;-68
2023/03/29 01:15:40;;;;;;;1.33;1.23;;;-1.10;99.90;-0.60;97394.00;;;;5004449;28;20952;-69
2023/03/29 01:18:30;;;;;;;1.73;1.40;;;-1.00;99.90;-0.40;97391.00;;;;5003138;28;20983;-70
2023/03/29 01:21:29;;;;;;;0.90;0.90;;;-1.10;99.90;-0.70;97382.00;;;;5005438;28;20442;-69
2023/03/29 01:24:51;;;;;;;1.20;1.00;;;-1.10;99.90;-0.90;97390.00;;;;5007980;28;20472;-70
2023/03/29 01:27:51;;;;;;;1.23;1.10;;;-1.20;99.90;-1.00;97377.00;;;;5003797;28;20503;-69
2023/03/29 01:30:46;;;;;;;1.37;1.00;;;-1.30;99.90;-0.90;97379.00;;;;5007501;28;20450;-70
2023/03/29 01:33:40;;;;;;;0.77;0.77;;;-1.30;99.90;-0.90;97379.00;;;;5004506;28;20441;-68
2023/03/29 01:36:36;;;;;;;0.90;0.90;;;-1.30;99.90;-1.10;97372.00;;;;5009349;28;22602;-68
2023/03/29 01:39:24;;;;;;;1.10;1.10;;;-1.30;99.90;-1.10;97380.00;;;;5002685;28;20845;-68
2023/03/29 01:42:33;;;;;;;1.20;1.10;;;-1.30;99.90;-1.00;97392.00;;;;5004971;28;20473;-70
2023/03/29 01:45:31;;;;;;;1.60;1.07;;;-1.40;99.90;-0.90;97392.00;;;;4999943;28;20422;-70
2023/03/29 01:48:28;;;;;;;2.23;1.23;;;-1.30;99.90;-0.40;97388.00;;;;5004161;28;20425;-70
2023/03/29 01:51:24;;;;;;;1.43;1.07;;;-0.50;99.90;-0.40;97394.00;;;;5008100;28;21041;-68
2023/03/29 01:54:19;;;;;;;0.93;0.93;;;-1.20;99.90;-0.50;97396.00;;;;5007049;28;20457;-68
2023/03/29 01:57:10;;;;;;;1.90;1.30;;;-1.10;99.90;-0.40;97393.00;;;;5000206;28;20910;-70
2023/03/29 02:00:01;;;;;;;1.10;1.10;;;-1.10;99.90;-0.10;97407.00;;;;5003967;28;20508;-70
2023/03/29 02:02:54;;;;;;;1.00;0.90;;;-1.00;99.90;-0.10;97413.00;;;;5007491;28;20472;-71
2023/03/29 02:05:45;;;;;;;1.03;1.03;;;-1.00;99.90;0.00;97422.00;;;;4997693;28;20421;-71
2023/03/29 02:08:33;;;;;;;3.33;1.10;;;-0.90;99.90;-0.10;97406.00;;;;4996974;28;20499;-71
2023/03/29 02:11:24;;;;;;;2.40;1.23;;;-0.80;99.90;-0.10;97414.00;;;;5007649;28;21008;-71
2023/03/29 02:14:14;;;;;;;0.97;0.90;;;-0.80;99.90;0.10;97421.00;;;;5003002;28;21373;-70
2023/03/29 02:17:18;;;;;;;1.73;1.00;;;-0.80;99.90;0.10;97416.00;;;;5005733;28;20537;-71
2023/03/29 02:20:13;;;;;;;0.97;0.97;;;-0.70;99.90;0.10;97423.00;;;;5004608;28;21062;-71
2023/03/29 02:23:08;;;;;;;0.73;0.73;;;-0.70;99.90;0.00;97414.00;;;;5007706;28;20469;-71
2023/03/29 02:25:57;;;;;;;2.93;1.53;;;-0.70;99.90;0.00;97417.00;;;;5003175;28;20521;-71
2023/03/29 02:28:46;;;;;;;2.33;1.20;;;-0.80;99.90;-0.10;97416.00;;;;5003491;28;20421;-71
2023/03/29 02:31:39;;;;;;;1.73;1.30;;;-0.70;99.90;-0.20;97409.00;;;;4996181;28;20491;-71
2023/03/29 02:34:31;;;;;;;1.73;1.47;;;-0.80;99.90;-0.40;97406.00;;;;5007610;28;20425;-71
2023/03/29 02:37:25;;;;;;;2.27;0.87;;;-0.80;99.90;-0.30;97411.00;;;;5006939;28;20437;-71
2023/03/29 02:40:15;;;;;;;5.50;1.43;;;-0.90;99.90;-0.50;97403.00;;;;5003097;28;20975;-71
2023/03/29 02:43:06;;;;;;;1.70;0.97;;;-0.70;99.90;-0.60;97398.00;;;;5005428;28;20964;-71
2023/03/29 02:45:55;;;;;;;1.60;1.50;;;-1.00;99.90;-0.50;97400.00;;;;5004508;28;20452;-70
2023/03/29 02:48:48;;;;;;;1.27;1.27;;;-1.00;99.90;-1.00;97400.00;;;;5001122;28;20430;-70
2023/03/29 02:51:38;;;;;;;1.33;1.30;;;-1.10;99.90;-1.00;97401.00;;;;5004787;28;20441;-71
2023/03/29 02:54:30;;;;;;;1.80;1.17;;;-1.20;99.90;-0.70;97400.00;;;;5007567;28;20433;-68
2023/03/29 02:57:25;;;;;;;1.40;1.30;;;-1.20;99.90;-0.40;97420.00;;;;5002268;28;20441;-68
2023/03/29 03:00:18;;;;;;;1.20;1.20;;;-1.00;99.90;-0.70;97415.00;;;;5003985;28;20495;-69
2023/03/29 03:03:09;;;;;;;1.20;1.10;;;-1.20;99.90;-0.60;97417.00;;;;5007410;28;20465;-70
2023/03/29 03:06:00;;;;;;;2.83;1.60;;;-1.20;99.90;-0.30;97423.00;;;;5002879;28;20435;-70
2023/03/29 03:08:48;;;;;;;1.10;1.10;;;-1.10;99.90;-0.10;97419.00;;;;5003571;28;20519;-70
2023/03/29 03:11:39;;;;;;;1.53;1.40;;;-1.00;99.90;-0.30;97414.00;;;;5005876;28;20445;-70
2023/03/29 03:14:28;;;;;;;1.10;1.03;;;-0.90;99.90;0.10;97413.00;;;;5007184;28;20425;-70
2023/03/29 03:17:18;;;;;;;4.93;1.57;;;-0.90;99.90;0.30;97412.00;;;;5004573;28;20524;-70
2023/03/29 03:20:12;;;;;;;1.70;1.60;;;-0.80;99.90;0.40;97415.00;;;;5005668;28;20446;-70
2023/03/29 03:23:02;;;;;;;2.57;1.63;;;-0.70;99.90;0.10;97398.00;;;;5005474;28;20468;-70
2023/03/29 03:25:52;;;;;;;3.13;1.23;;;-0.70;99.90;0.10;97404.00;;;;5002585;28;20426;-70
2023/03/29 03:28:42;;;;;;;1.60;1.50;;;-0.70;99.90;0.30;97405.00;;;;5003221;28;20437;-70
2023/03/29 03:31:32;;;;;;;3.57;0.87;;;-0.60;99.90;0.20;97399.00;;;;5000046;28;20445;-70
2023/03/29 03:34:21;;;;;;;1.10;1.10;;;-0.60;99.90;-0.10;97398.00;;;;5004165;28;20962;-70
2023/03/29 03:37:10;;;;;;;1.20;1.17;;;-0.60;99.90;0.20;97400.00;;;;5004972;28;20434;-70
2023/03/29 03:39:59;;;;;;;1.90;1.23;;;-0.60;99.90;0.10;97399.00;;;;5002312;28;20468;-70
2023/03/29 03:42:48;;;;;;;1.30;1.30;;;-0.60;99.90;0.10;97398.00;;;;4992045;28;20476;-70
2023/03/29 03:45:38;;;;;;;1.07;1.07;;;-0.60;99.90;-0.40;97388.00;;;;4998920;28;20500;-70
2023/03/29 03:48:27;;;;;;;1.00;1.00;;;-0.70;99.90;-0.20;97384.00;;;;5001930;28;20480;-70
2023/03/29 03:51:16;;;;;;;1.13;1.13;;;-0.70;99.90;-0.40;97385.00;;;;5006255;28;20455;-70
2023/03/29 03:54:05;;;;;;;4.57;1.33;;;-0.80;99.90;-0.20;97373.00;;;;5003927;28;20484;-70
2023/03/29 03:56:54;;;;;;;3.50;1.40;;;-0.80;99.90;-0.40;97366.00;;;;4999629;28;20492;-71
2023/03/29 03:59:43;;;;;;;2.30;1.70;;;-0.80;99.90;-0.10;97372.00;;;;5000481;28;20452;-70
2023/03/29 04:02:33;;;;;;;2.53;1.20;;;-0.60;99.90;-0.10;97366.00;;;;5007389;28;20425;-71
2023/03/29 04:05:21;;;;;;;1.30;1.20;;;-0.80;99.90;0.00;97358.00;;;;5000899;28;21027;-70
2023/03/29 04:08:11;;;;;;;1.20;1.20;;;-0.70;99.90;-0.10;97365.00;;;;5001162;28;20528;-71
2023/03/29 04:11:00;;;;;;;0.90;0.90;;;-0.70;99.90;0.00;97368.00;;;;4993010;28;20477;-71
2023/03/29 04:13:49;;;;;;;0.80;0.80;;;-0.70;99.90;-0.40;97362.00;;;;4998571;28;20442;-72
2023/03/29 04:16:38;;;;;;;0.90;0.90;;;-0.70;99.90;-0.30;97347.00;;;;5005170;28;20438;-70
2023/03/29 04:19:28;;;;;;;1.27;1.27;;;-0.70;99.90;-0.20;97348.00;;;;5005556;28;20424;-68
2023/03/29 04:22:16;;;;;;;1.20;1.10;;;-0.70;99.90;0.00;97357.00;;;;5004422;28;20515;-68
2023/03/29 04:25:09;;;;;;;1.17;1.00;;;-0.70;99.90;-0.30;97349.00;;;;4994465;28;20556;-71
2023/03/29 04:27:57;;;;;;;1.03;1.00;;;-0.70;99.90;0.00;97346.00;;;;4990953;28;20429;-69
2023/03/29 04:30:46;;;;;;;0.87;0.87;;;-0.70;99.90;0.10;97348.00;;;;5003255;28;20600;-70
2023/03/29 04:33:35;;;;;;;2.77;1.57;;;-0.60;99.90;-0.10;97341.00;;;;5000523;28;20426;-71
2023/03/29 04:36:25;;;;;;;1.10;1.00;;;-0.70;99.90;-0.10;97347.00;;;;5002720;28;22570;-70
2023/03/29 04:39:14;;;;;;;0.93;0.93;;;-0.70;99.90;0.30;97358.00;;;;5004573;28;20436;-68
2023/03/29 04:42:03;;;;;;;1.20;1.20;;;-0.60;99.90;0.20;97357.00;;;;4996027;28;20453;-69
2023/03/29 04:44:52;;;;;;;1.80;1.70;;;-0.50;99.90;-0.30;97333.00;;;;5006570;28;20473;-70
2023/03/29 04:47:40;;;;;;;1.70;1.60;;;-0.60;99.90;-0.10;97354.00;;;;4999564;28;20445;-69
2023/03/29 04:50:29;;;;;;;1.37;1.33;;;-0.60;99.90;-0.20;97337.00;;;;5005132;28;20980;-70
2023/03/29 04:53:20;;;;;;;1.73;1.63;;;-0.70;99.90;0.20;97333.00;;;;5007875;28;20488;-68
2023/03/29 04:56:09;;;;;;;1.93;1.83;;;-0.60;99.90;0.40;97328.00;;;;5002848;28;20574;-69
2023/03/29 04:58:58;;;;;;;2.93;1.27;;;-0.50;99.90;0.10;97332.00;;;;5005138;28;20480;-70
2023/03/29 05:01:47;;;;;;;1.90;1.33;;;-0.50;99.90;0.00;97320.00;;;;5003783;28;20842;-71
2023/03/29 05:04:35;;;;;;;1.33;1.20;;;-0.50;99.90;0.00;97330.00;;;;5011828;28;20536;-69
2023/03/29 05:07:24;;;;;;;1.33;1.20;;;-0.60;99.90;0.10;97335.00;;;;4998619;28;20502;-70
2023/03/29 05:10:14;;;;;;;1.50;1.40;;;-0.50;99.90;0.10;97334.00;;;;5001088;28;20461;-71
2023/03/29 05:13:03;;;;;;;4.17;1.60;;;-0.20;99.90;0.10;97324.00;;;;5008377;28;20429;-70
2023/03/29 05:15:52;;;;;;;22.80;13.53;;;-0.50;99.90;0.20;97343.00;;;;5005436;28;20809;-68
2023/03/29 05:18:40;;;;;;;2.20;1.93;;;-0.40;99.90;0.30;97337.00;;;;4996601;28;20444;-70
2023/03/29 05:21:29;;;;;;;1.10;1.10;;;-0.40;99.90;0.30;97324.00;;;;5007603;28;22138;-70
2023/03/29 05:24:18;;;;;;;1.50;1.40;;;-0.40;99.90;0.80;97330.00;;;;5007074;28;20473;-70
2023/03/29 05:27:08;;;;;;;1.77;1.67;;;-0.30;99.90;0.90;97314.00;;;;5002994;28;20438;-69
2023/03/29 05:29:57;;;;;;;3.17;1.40;;;-0.20;99.90;0.60;97308.00;;;;5001915;28;20466;-70
2023/03/29 05:32:46;;;;;;;1.40;1.00;;;-0.10;99.90;0.50;97304.00;;;;5002156;28;20442;-70
2023/03/29 05:35:36;;;;;;;2.20;1.40;;;-0.10;99.90;0.30;97309.00;;;;4998516;28;20434;-70
2023/03/29 05:38:24;;;;;;;1.63;1.53;;;-0.10;99.90;0.10;97310.00;;;;4997112;28;21011;-66
2023/03/29 05:41:14;;;;;;;4.83;3.13;;;-0.10;99.90;0.70;97307.00;;;;5001423;28;20982;-68
2023/03/29 05:44:05;;;;;;;3.37;2.00;;;-0.10;99.90;0.90;97321.00;;;;5002648;28;20433;-69
2023/03/29 05:46:53;;;;;;;4.20;2.73;;;0.00;99.90;1.00;97327.00;;;;5002386;28;20630;-70
2023/03/29 05:49:42;;;;;;;5.67;2.80;;;0.10;99.90;1.20;97324.00;;;;5006475;28;20512;-69
2023/03/29 05:52:31;;;;;;;4.50;3.20;;;0.20;99.90;1.20;97328.00;;;;5000534;28;20449;-69
2023/03/29 05:55:19;;;;;;;3.67;1.87;;;0.30;99.90;0.80;97338.00;;;;4997368;28;20437;-70
2023/03/29 05:58:09;;;;;;;2.20;2.10;;;0.90;99.90;1.00;97341.00;;;;4999892;28;20413;-68
2023/03/29 06:00:59;;;;;;;2.73;1.97;;;0.30;99.90;1.10;97343.00;;;;4999925;28;20577;-69
2023/03/29 06:03:47;;;;;;;1.87;1.43;;;0.30;99.90;1.30;97346.00;;;;4997517;28;20488;-69
2023/03/29 06:06:36;;;;;;;2.17;1.57;;;0.40;99.90;1.50;97339.00;;;;5005006;28;20433;-69
2023/03/29 06:09:25;;;;;;;8.27;2.37;;;0.40;99.90;1.80;97340.00;;;;5008153;28;20500;-69
2023/03/29 06:12:14;;;;;;;1.87;1.77;;;0.50;99.90;1.80;97340.00;;;;5009853;28;20500;-69
2023/03/29 06:15:03;;;;;;;1.50;1.40;;;0.60;99.90;1.60;97332.00;;;;5005703;28;20520;-69
2023/03/29 06:17:53;;;;;;;1.63;1.53;;;0.70;99.90;1.40;97340.00;;;;5008403;28;20476;-70
2023/03/29 06:20:42;;;;;;;1.57;1.47;;;0.70;99.90;1.70;97335.00;;;;5009363;28;20956;-70
2023/03/29 06:23:31;;;;;;;1.20;1.20;;;0.70;99.90;1.80;97349.00;;;;5007270;28;20425;-70
2023/03/29 06:26:20;;;;;;;1.10;1.10;;;0.80;99.90;1.80;97334.00;;;;5005566;28;20512;-69
2023/03/29 06:29:09;;;;;;;1.60;1.50;;;0.90;99.90;1.70;97333.00;;;;5009137;28;20996;-69
2023/03/29 06:31:57;;;;;;;1.70;1.60;;;0.90;99.90;1.70;97329.00;;;;5001391;28;20504;-70
2023/03/29 06:34:48;;;;;;;2.87;1.87;;;0.90;99.90;1.50;97323.00;;;;5004684;28;20453;-70
2023/03/29 06:37:37;;;;;;;2.07;1.47;;;0.90;99.90;1.40;97323.00;;;;5001826;28;20909;-70
2023/03/29 06:40:27;;;;;;;2.03;1.87;;;0.80;99.90;1.70;97315.00;;;;5007873;28;20449;-69
2023/03/29 06:43:16;;;;;;;3.53;1.80;;;0.80;99.90;2.00;97307.00;;;;5009582;28;20426;-69
2023/03/29 06:46:10;;;;;;;3.43;1.90;;;0.90;99.90;2.20;97313.00;;;;5003927;28;20512;-69
2023/03/29 06:49:01;;;;;;;2.17;2.00;;;1.00;99.90;2.40;97311.00;;;;5003187;28;20433;-69
2023/03/29 06:51:52;;;;;;;2.80;2.07;;;1.20;99.90;2.60;97315.00;;;;5007988;28;20425;-69
2023/03/29 06:54:41;;;;;;;3.90;3.33;;;1.30;99.90;2.80;97322.00;;;;5002379;28;20457;-69
2023/03/29 06:57:30;;;;;;;2.33;1.93;;;1.50;99.90;2.80;97317.00;;;;5007721;28;20465;-69
2023/03/29 07:00:26;;;;;;;2.70;2.20;;;1.60;99.90;3.00;97311.00;;;;5000449;28;20454;-70
2023/03/29 07:03:22;;;;;;;4.30;3.60;;;1.70;99.90;3.10;97321.00;;;;5002206;28;20441;-70
2023/03/29 07:06:11;;;;;;;6.03;2.47;;;2.00;99.90;2.90;97343.00;;;;5005197;28;20461;-70
2023/03/29 07:09:08;;;;;;;4.03;2.90;;;1.90;99.90;3.00;97335.00;;;;5003371;28;20519;-71
2023/03/29 07:11:58;;;;;;;4.20;3.33;;;2.00;99.90;3.10;97336.00;;;;5006365;28;20482;-69
2023/03/29 07:14:47;;;;;;;4.10;3.20;;;2.10;99.90;3.10;97342.00;;;;5006852;28;20896;-71
2023/03/29 07:17:36;;;;;;;3.13;2.40;;;2.10;99.90;2.90;97350.00;;;;4999207;28;20431;-72
2023/03/29 07:20:25;;;;;;;2.20;2.10;;;2.30;99.90;3.20;97342.00;;;;5005126;28;20448;-72
2023/03/29 07:23:14;;;;;;;6.20;2.90;;;2.20;99.90;3.00;97360.00;;;;5009582;28;20429;-73
2023/03/29 07:26:06;;;;;;;3.30;2.13;;;2.30;99.90;3.20;97356.00;;;;4998489;28;20465;-72
2023/03/29 07:28:55;;;;;;;11.37;2.97;;;2.30;99.90;3.50;97355.00;;;;5001746;28;20442;-72
2023/03/29 07:31:44;;;;;;;3.50;2.50;;;2.40;99.90;3.80;97349.00;;;;5001840;28;20960;-72
2023/03/29 07:34:33;;;;;;;2.37;1.93;;;2.60;99.90;4.10;97345.00;;;;5008813;28;20811;-72
2023/03/29 07:37:23;;;;;;;2.90;2.23;;;2.60;99.90;4.30;97344.00;;;;5004274;28;20493;-72
2023/03/29 07:40:17;;;;;;;3.77;2.93;;;2.80;99.90;4.40;97340.00;;;;4999366;28;20452;-72
2023/03/29 07:43:09;;;;;;;9.03;2.77;;;2.90;99.90;4.60;97342.00;;;;5004160;28;20853;-72
2023/03/29 07:46:01;;;;;;;3.20;2.60;;;3.00;99.90;4.70;97322.00;;;;5001681;28;20472;-72
2023/03/29 07:48:51;;;;;;;5.77;2.80;;;3.20;99.90;4.80;97318.00;;;;5001079;28;20461;-71
2023/03/29 07:51:39;;;;;;;4.30;2.77;;;3.40;99.90;5.00;97330.00;;;;5001360;28;20433;-71
2023/03/29 07:54:31;;;;;;;11.13;2.67;;;3.50;99.90;4.60;97342.00;;;;5005222;28;20467;-72
2023/03/29 07:57:19;;;;;;;3.27;2.77;;;3.50;99.90;4.90;97338.00;;;;5005388;28;20496;-71
2023/03/29 08:00:14;;;;;;;6.67;2.73;;;3.60;99.80;4.80;97339.00;;;;4996145;28;20484;-71
2023/03/29 08:03:03;;;;;;;3.87;2.77;;;3.70;99.40;4.80;97336.00;;;;5004840;28;20444;-71
2023/03/29 08:05:52;;;;;;;4.73;2.17;;;3.70;99.50;4.90;97356.00;;;;4996550;28;20465;-71
2023/03/29 08:08:40;;;;;;;3.37;2.30;;;3.70;99.20;5.10;97338.00;;;;4997405;28;20429;-71
2023/03/29 08:11:29;;;;;;;6.27;2.83;;;3.80;99.30;5.50;97348.00;;;;5005792;28;20467;-71
2023/03/29 08:14:18;;;;;;;4.90;2.67;;;3.90;99.40;5.60;97360.00;;;;5004053;28;20257;-71
2023/03/29 08:17:08;;;;;;;5.97;2.60;;;4.00;99.20;5.60;97348.00;;;;5007830;28;20241;-71
2023/03/29 08:19:57;;;;;;;8.30;2.93;;;4.10;98.30;5.70;97362.00;;;;5005367;28;20226;-70
2023/03/29 08:22:47;;;;;;;2.97;2.77;;;4.10;97.90;5.90;97348.00;;;;5010744;28;20433;-70
2023/03/29 08:25:36;;;;;;;2.67;2.33;;;4.20;97.90;5.90;97344.00;;;;5006797;28;20233;-71
2023/03/29 08:28:24;;;;;;;3.50;2.43;;;4.40;98.00;6.00;97364.00;;;;5009617;28;20214;-71
2023/03/29 08:31:13;;;;;;;6.50;2.87;;;4.40;98.00;5.80;97348.00;;;;5001774;28;20218;-71
2023/03/29 08:34:03;;;;;;;5.30;2.50;;;4.40;97.30;6.00;97345.00;;;;5005010;28;20203;-71
2023/03/29 08:36:53;;;;;;;5.80;2.47;;;4.50;97.10;6.30;97362.00;;;;5005692;28;20206;-71
2023/03/29 08:39:41;;;;;;;5.43;2.83;;;4.70;97.40;5.90;97346.00;;;;4998996;28;20218;-72
2023/03/29 08:42:52;;;;;;;3.07;2.50;;;4.70;96.30;6.20;97354.00;;;;4996518;28;20202;-72
2023/03/29 08:45:53;;;;;;;4.50;2.60;;;4.70;96.40;6.40;97354.00;;;;5004542;28;20241;-71
2023/03/29 08:48:49;;;;;;;5.83;4.30;;;4.80;96.20;6.20;97341.00;;;;5009927;28;20205;-72
2023/03/29 08:51:45;;;;;;;3.23;2.30;;;4.90;95.40;6.10;97353.00;;;;5008509;28;20657;-71
2023/03/29 08:54:40;;;;;;;4.60;2.40;;;4.90;94.70;6.30;97352.00;;;;5008916;28;20198;-72
2023/03/29 08:57:32;;;;;;;4.47;2.63;;;4.90;94.90;6.50;97344.00;;;;5010254;28;20825;-71
2023/03/29 09:00:26;;;;;;;5.33;2.93;;;5.00;95.00;6.50;97338.00;;;;5009640;28;20234;-67
2023/03/29 09:03:22;;;;;;;2.47;2.27;;;5.10;94.10;6.80;97342.00;;;;5004661;28;20233;-68
2023/03/29 09:06:12;;;;;;;5.40;1.93;;;5.20;93.70;6.90;97352.00;;;;5009232;28;20229;-68
2023/03/29 09:09:02;;;;;;;1.67;1.57;;;5.30;94.20;6.80;97351.00;;;;5007168;28;20260;-69
2023/03/29 09:12:07;;;;;;;3.70;2.13;;;5.40;93.30;6.70;97330.00;;;;5006930;28;20696;-72
2023/03/29 09:15:11;;;;;;;4.53;1.93;;;5.50;92.70;7.00;97344.00;;;;5005561;28;20293;-73
2023/03/29 09:18:11;;;;;;;2.83;2.20;;;5.50;93.00;6.60;97336.00;;;;5007155;28;20221;-72
2023/03/29 09:21:04;;;;;;;4.67;2.33;;;5.40;92.40;6.30;97336.00;;;;5004924;28;20313;-70
2023/03/29 09:24:10;;;;;;;5.57;3.60;;;5.30;92.50;6.10;97339.00;;;;5004069;28;20269;-70
2023/03/29 09:27:05;;;;;;;4.50;2.80;;;5.30;92.90;6.60;97338.00;;;;4999106;28;20708;-70
2023/03/29 09:30:05;;;;;;;3.17;2.60;;;5.30;93.00;6.70;97343.00;;;;5002266;28;20217;-70
2023/03/29 09:32:58;;;;;;;3.93;2.27;;;5.30;92.90;6.90;97346.00;;;;5004409;28;20202;-70
2023/03/29 09:35:55;;;;;;;3.13;1.53;;;5.30;92.90;6.90;97347.00;;;;5003107;28;20206;-70
2023/03/29 09:38:49;;;;;;;2.97;1.90;;;5.40;93.00;6.80;97352.00;;;;5002033;28;20221;-70
2023/03/29 09:41:43;;;;;;;4.53;2.70;;;5.40;92.40;6.60;97340.00;;;;5004630;28;20205;-71
2023/03/29 09:44:38;;;;;;;3.23;2.30;;;5.40;92.30;6.60;97333.00;;;;5002666;28;20206;-71
2023/03/29 09:47:33;;;;;;;3.00;2.10;;;5.40;92.40;7.00;97341.00;;;;5008547;28;20257;-71
2023/03/29 09:50:27;;;;;;;4.90;2.07;;;5.40;92.70;7.20;97355.00;;;;5007983;28;20245;-71
2023/03/29 09:53:20;;;;;;;5.77;2.97;;;5.50;92.60;7.30;97353.00;;;;5005368;28;20222;-71
2023/03/29 09:56:09;;;;;;;2.93;2.53;;;5.60;92.60;7.20;97343.00;;;;5009140;28;20206;-71
2023/03/29 09:58:59;;;;;;;4.10;2.03;;;5.80;92.40;7.20;97338.00;;;;5006336;28;20254;-72
2023/03/29 10:01:48;;;;;;;3.33;1.77;;;5.70;92.20;7.30;97342.00;;;;5006511;28;20292;-71
2023/03/29 10:04:37;;;;;;;2.43;1.83;;;5.70;92.10;7.40;97346.00;;;;5009687;28;20225;-71
2023/03/29 10:07:43;;;;;;;3.60;2.20;;;5.80;92.40;7.40;97329.00;;;;5008820;28;20607;-71
2023/03/29 10:10:35;;;;;;;5.13;2.33;;;5.80;91.60;7.30;97335.00;;;;5002710;28;20221;-71
2023/03/29 10:13:30;;;;;;;3.23;2.77;;;5.90;91.70;7.40;97331.00;;;;5008881;28;20256;-71
2023/03/29 10:16:22;;;;;;;4.67;4.00;;;5.90;91.70;7.20;97335.00;;;;5008686;28;20228;-71
2023/03/29 10:19:21;;;;;;;8.47;3.53;;;5.90;91.40;7.40;97341.00;;;;5002956;28;20214;-71
2023/03/29 10:22:19;;;;;;;10.87;4.43;;;5.90;91.50;7.30;97328.00;;;;5008671;28;20270;-70
2023/03/29 10:25:14;;;;;;;6.97;3.77;;;5.90;91.40;7.50;97319.00;;;;5007801;28;20276;-71
2023/03/29 10:28:07;;;;;;;6.63;3.23;;;5.90;91.50;7.40;97326.00;;;;4998682;28;20421;-70
2023/03/29 10:30:58;;;;;;;3.60;2.30;;;5.90;91.30;7.20;97320.00;;;;5002758;28;20481;-70
2023/03/29 10:33:53;;;;;;;4.50;2.63;;;5.90;90.90;7.50;97322.00;;;;5002608;28;20635;-70
2023/03/29 10:36:44;;;;;;;3.70;2.73;;;5.90;90.90;7.50;97307.00;;;;4996604;28;20206;-69
2023/03/29 10:39:35;;;;;;;7.27;3.43;;;6.00;90.70;7.60;97302.00;;;;5000486;28;20281;-72
2023/03/29 10:42:26;;;;;;;2.73;1.57;;;6.10;90.80;7.90;97307.00;;;;5001833;28;20622;-72
2023/03/29 10:45:22;;;;;;;2.47;2.20;;;6.20;90.80;8.10;97301.00;;;;5001369;28;20210;-71
2023/03/29 10:48:13;;;;;;;8.83;2.37;;;6.30;90.50;8.50;97293.00;;;;5006874;28;20226;-71
2023/03/29 10:51:06;;;;;;;2.63;1.97;;;6.50;90.60;8.70;97295.00;;;;4998559;28;20321;-71
2023/03/29 10:53:57;;;;;;;3.03;1.80;;;6.70;90.30;8.60;97299.00;;;;5002559;28;20217;-71
2023/03/29 10:56:52;;;;;;;3.30;1.70;;;6.90;90.00;8.00;97303.00;;;;5006380;28;20201;-71
2023/03/29 10:59:51;;;;;;;2.13;1.40;;;6.90;86.80;8.00;97298.00;;;;5007325;28;20233;-70
2023/03/29 11:03:34;;;;;;;1.93;1.40;;;6.80;87.40;8.10;97291.00;;;;5009094;28;20260;-70
2023/03/29 11:06:32;;;;;;;1.13;0.97;;;6.80;86.20;8.20;97291.00;;;;5006394;28;20208;-71
2023/03/29 11:09:36;;;;;;;2.90;1.80;;;7.10;86.70;8.40;97284.00;;;;5002668;28;20308;-71
2023/03/29 11:12:34;;;;;;;6.17;1.90;;;6.80;87.40;8.50;97289.00;;;;5004206;28;20210;-71
2023/03/29 11:15:39;;;;;;;6.07;2.10;;;6.80;87.50;8.70;97293.00;;;;5008533;28;20205;-71
2023/03/29 11:18:50;;;;;;;2.90;1.87;;;7.00;87.70;8.80;97283.00;;;;5008580;28;20209;-71
2023/03/29 11:21:51;;;;;;;4.20;1.90;;;7.10;86.90;8.60;97278.00;;;;5004711;28;20202;-72
2023/03/29 11:25:03;;;;;;;2.43;1.83;;;7.20;86.40;8.90;97260.00;;;;5002433;28;20209;-71
2023/03/29 11:28:00;;;;;;;3.77;2.20;;;7.20;86.50;9.00;97258.00;;;;5002463;28;20273;-71
2023/03/29 11:30:57;;;;;;;4.83;1.60;;;7.30;85.20;8.90;97263.00;;;;5003299;28;20230;-71
2023/03/29 11:33:57;;;;;;;2.93;1.70;;;7.40;84.80;8.80;97261.00;;;;4994583;28;20559;-71
2023/03/29 11:36:54;;;;;;;3.53;1.90;;;7.40;83.30;9.10;97273.00;;;;4998789;28;20206;-71
2023/03/29 11:39:56;;;;;;;3.70;1.80;;;7.50;83.50;9.10;97264.00;;;;5002690;28;20939;-71
2023/03/29 11:42:48;;;;;;;1.93;1.70;;;7.50;83.30;9.20;97265.00;;;;4999991;28;20700;-71
2023/03/29 11:45:43;;;;;;;3.77;2.63;;;7.50;82.40;9.30;97258.00;;;;5010507;28;20213;-71
2023/03/29 11:48:38;;;;;;;5.67;2.23;;;7.60;81.60;9.60;97261.00;;;;5007431;28;20287;-71
2023/03/29 11:51:33;;;;;;;14.97;7.07;;;7.70;82.30;9.70;97271.00;;;;5013862;28;20230;-71
2023/03/29 11:54:30;;;;;;;10.30;5.70;;;7.80;81.60;9.80;97252.00;;;;5012665;28;20225;-71
2023/03/29 11:57:25;;;;;;;3.37;2.40;;;8.00;80.00;10.40;97255.00;;;;5008143;28;20242;-71
2023/03/29 12:00:20;;;;;;;2.37;1.70;;;8.20;81.10;10.70;97246.00;;;;5015864;28;20233;-71
2023/03/29 12:03:14;;;;;;;2.00;1.83;;;8.50;79.80;11.40;97237.00;;;;5004594;28;20212;-71
2023/03/29 12:06:10;;;;;;;2.63;1.77;;;8.80;79.00;12.00;97238.00;;;;5006439;28;20213;-71
2023/03/29 12:09:07;;;;;;;4.97;1.67;;;9.30;78.80;12.70;97169.00;;;;5009630;28;20249;-71
2023/03/29 12:12:08;;;;;;;5.53;1.57;;;10.00;77.00;15.30;97198.00;;;;5010746;28;20244;-71
2023/03/29 12:15:05;;;;;;;4.33;1.33;;;11.00;76.70;16.00;97221.00;;;;5004326;28;20206;-71
2023/03/29 12:18:04;;;;;;;4.37;1.57;;;12.00;75.40;14.60;97234.00;;;;5007724;28;20206;-72
2023/03/29 12:20:58;;;;;;;3.22;1.50;;;12.80;66.80;14.20;97244.00;;;;5006647;28;20397;-71
2023/03/29 12:23:48;;;;;;;0.97;0.93;;;12.80;64.20;14.20;97231.00;;;;5003410;28;20214;-71
2023/03/29 12:26:49;;;;;;;;;;;12.70;61.40;13.50;97232.00;;;;5004890;28;20042;-71
2023/03/29 12:30:01;;;;;;;2.03;1.48;;;12.40;58.80;13.10;97231.00;;;;5005587;28;20404;-71
2023/03/29 12:33:28;;;;;;;1.75;1.00;;;12.10;58.80;12.30;97219.00;;;;4999136;28;20401;-72
2023/03/29 12:36:51;;;;;;;3.97;1.40;;;11.60;58.70;12.40;97224.00;;;;5005639;28;20210;-72
2023/03/29 12:39:40;;;;;;;2.58;1.40;;;11.30;59.10;12.00;97203.00;;;;5005591;28;20389;-74
2023/03/29 12:42:29;;;;;;;1.30;0.97;;;11.10;59.10;11.40;97216.00;;;;5010489;28;20610;-73
2023/03/29 12:45:29;;;;;;;2.20;1.37;;;10.80;59.10;11.70;97211.00;;;;5009334;28;20225;-74
2023/03/29 12:48:23;;;;;;;1.57;1.07;;;10.50;59.70;12.10;97204.00;;;;5007890;28;20240;-73
2023/03/29 12:51:14;;;;;;;1.50;1.33;;;10.40;60.90;12.10;97206.00;;;;5011896;28;20222;-73
2023/03/29 12:54:08;;;;;;;1.77;1.40;;;10.40;59.00;12.10;97211.00;;;;4997235;28;20202;-73
2023/03/29 12:57:01;;;;;;;1.70;1.20;;;10.40;59.30;11.60;97197.00;;;;5007385;28;20208;-72